• Join FlightAware (Why Join?)
  • Login
  • US Flag 
04:35AM EST


 

Airport Tracker/Info


-or-


 

Live Flight TrackerFlight Track Log ✈ QFA982 ✈ 19-May-2013 ✈ YBAS / ASP - YBBN / BNE

Flight Track Log - Related Links

Times and Time Zones

All times are in EDT time to prevent confusion due to time zone crossing. See the QFA982 flight status page for this flight to view local times or setup timezone preferences in your user account.

Time Position Orientation Groundspeed Altitude Reporting Facility
EDT Latitude Longitude Course Direction KTS MPH feet Rate Location/Type
11:05PM -23.8293 133.9899 282° West 15,000  Level Aus ATC (Calculated)
11:05PM -23.8160 133.9200 126° Southeast 164 189 2,200 -23,040 Descending FlightAware
11:05PM -23.8260 133.9390 126° Southeast 177 204 3,100 1,800 Climbing FlightAware
11:06PM -23.8698 134.1624 280° West 15,000 1,560 Climbing Aus ATC (Calculated)
11:06PM -23.8390 133.9640 120° Southeast 215 247 3,900 -19,200 Descending FlightAware
11:06PM -23.8698 134.1624 276° West 15,000 2,400 Climbing Aus ATC (Calculated)
11:06PM -23.8530 133.9920 120° Southeast 230 265 5,100 -23,760 Descending FlightAware
11:07PM -23.8590 134.0050 120° Southeast 247 284 5,500 2,220 Climbing FlightAware
11:07PM -23.8730 134.0430 112° Southeast 274 315 6,600 2,460 Climbing FlightAware
11:07PM -23.9076 134.3242 276° West 15,000 2,880 Climbing Aus ATC (Calculated)
11:07PM -23.8820 134.0780 112° Southeast 282 325 7,800 -8,160 Descending FlightAware
11:08PM -23.9253 134.4001 278° West 15,000 2,160 Climbing Aus ATC (Calculated)
11:08PM -23.8890 134.1210 112° Southeast 306 352 8,900 -4,740 Descending FlightAware
11:09PM -23.8930 134.1960 93° East 342 394 10,500 2,160 Climbing FlightAware
11:09PM -23.9594 134.5472 286° West 15,000 2,220 Climbing Aus ATC (Calculated)
11:09PM -23.8870 134.2660 93° East 362 417 12,000 -1,200 Descending FlightAware
11:10PM -23.9908 134.6830 285° West 15,000 2,400 Climbing Aus ATC (Calculated)
11:10PM -23.9030 134.3380 104° East 376 433 13,600 -900 Descending FlightAware
11:11PM -24.0206 134.8125 285° West 15,000 900 Climbing Aus ATC (Calculated)
11:11PM -23.9230 134.4220 104° East 419 482 14,300 -180 Descending FlightAware
11:11PM -23.9430 134.5090 104° East 423 487 14,900 480 Climbing FlightAware
11:12PM -23.9620 134.5900 104° East 422 486 15,000 60 Climbing FlightAware
11:12PM -24.0623 134.9947 285° West 15,000  Level Aus ATC (Calculated)
11:13PM -24.0749 135.0498 285° West 15,000  Level Aus ATC (Calculated)
11:13PM -23.9840 134.6840 104° East 419 482 15,000 240 Level FlightAware
11:13PM -24.0871 135.1032 285° West 15,000 420 Level Aus ATC (Calculated)
11:14PM -24.0030 134.7660 104° East 417 480 15,300 2,760 Climbing FlightAware
11:14PM -24.0871 135.1032 286° West 15,000 3,300 Descending Aus ATC (Calculated)
11:14PM -24.0240 134.8570 104° East 396 456 17,800 3,840 Climbing FlightAware
11:14PM -24.1106 135.2066 285° West 15,000 1,920 Descending Aus ATC (Calculated)
11:15PM -24.0420 134.9340 104° East 411 473 19,100 4,080 Climbing FlightAware
11:16PM -24.0640 135.0260 104° East 429 494 20,600 2,040 Climbing FlightAware
11:16PM -24.1545 135.4006 285° West 15,000 2,100 Descending Aus ATC (Calculated)
11:16PM -24.1545 135.4006 285° West 15,000 21,000 Level Aus ATC (Calculated)
11:16PM -24.0850 135.1170 104° East 443 510 22,000 9,540 Climbing FlightAware
11:17PM -24.1050 135.2030 104° East 454 522 23,300 1,920 Climbing FlightAware
11:17PM -24.1915 135.5651 285° West 15,000 1,980 Descending Aus ATC (Calculated)
11:17PM -24.1915 135.5651 285° West 15,000 17,760 Level Aus ATC (Calculated)
11:18PM -24.1270 135.3030 104° East 463 533 24,800 10,380 Climbing FlightAware
11:18PM -24.1480 135.3930 104° East 473 544 25,900 1,680 Climbing FlightAware
11:19PM -24.2395 135.7799 285° West 15,000 1,800 Descending Aus ATC (Calculated)
11:19PM -24.2531 135.8412 285° West 15,000 23,400 Level Aus ATC (Calculated)
11:19PM -24.1700 135.4910 104° East 483 556 27,100 16,320 Climbing FlightAware
11:20PM -24.2786 135.9562 284° West 15,000 1,320 Descending Aus ATC (Calculated)
11:20PM -24.1940 135.5970 104° East 495 570 28,100 19,620 Climbing FlightAware
11:21PM -24.2170 135.6990 104° East 504 580 29,100 1,440 Climbing FlightAware
11:21PM -24.3008 136.0568 284° West 15,000 1,440 Descending Aus ATC (Calculated)
11:21PM -24.2430 135.8120 104° East 511 588 30,200 13,800 Climbing FlightAware
11:22PM -24.2650 135.9070 104° East 516 594 31,100 1,320 Climbing FlightAware
11:23PM -24.2900 136.0220 103° East 522 601 32,100 1,200 Climbing FlightAware
11:23PM -24.3588 136.3211 284° West 15,000 1,020 Descending Aus ATC (Calculated)
11:23PM -24.3140 136.1290 103° East 530 610 32,800 14,280 Climbing FlightAware
11:24PM -24.3380 136.2350 104° East 536 617 33,600 1,260 Climbing FlightAware
11:25PM -24.3640 136.3540 104° East 537 618 34,600 1,380 Climbing FlightAware
11:25PM -24.3880 136.4610 104° East 532 612 35,600 1,380 Climbing FlightAware
11:26PM -24.4669 136.8190 284° West 15,000 1,320 Descending Aus ATC (Calculated)
11:26PM -24.4090 136.5570 104° East 528 608 36,500 24,000 Climbing FlightAware
11:26PM -24.4792 136.8758 283° West 15,000 660 Descending Aus ATC (Calculated)
11:27PM -24.4360 136.6770 104° East 527 606 37,000 16,260 Climbing FlightAware
11:27PM -24.5161 137.0462 283° West 15,000  Descending Aus ATC (Calculated)
11:28PM -24.4600 136.7850 104° East 528 608 37,000 24,420 Climbing FlightAware
11:28PM -24.4830 136.8920 104° East 527 606 37,000  Level FlightAware
11:29PM -24.5651 137.2736 283° West 15,000  Descending Aus ATC (Calculated)
11:29PM -24.5050 136.9960 103° East 527 606 37,000 28,200 Climbing FlightAware
11:30PM -24.5894 137.3874 283° West 15,000 780 Descending Aus ATC (Calculated)
11:30PM -24.5310 137.1140 103° East 525 604 37,600 29,820 Climbing FlightAware
11:30PM -24.5530 137.2180 103° East 522 601 38,400 600 Climbing FlightAware
11:31PM -24.5710 137.3060 103° East 521 600 38,400 480 Level FlightAware
11:32PM -24.5960 137.4190 104° East 521 600 39,000 360 Climbing FlightAware
11:32PM -24.6240 137.5500 103° East 521 600 39,000  Level FlightAware
11:33PM -24.6841 137.8341 283° West 15,000  Descending Aus ATC (Calculated)
11:33PM -24.6450 137.6500 103° East 522 601 39,000 18,180 Climbing FlightAware
11:33PM -24.7067 137.9422 283° West 15,000  Descending Aus ATC (Calculated)
11:34PM -24.6680 137.7570 103° East 522 601 39,000 18,420 Climbing FlightAware
11:35PM -24.6860 137.8450 103° East 522 601 39,000  Level FlightAware
11:35PM -24.7050 137.9330 103° East 522 601 39,000  Level FlightAware
11:36PM -24.7230 138.0210 103° East 522 601 39,000  Level FlightAware
11:37PM -24.7420 138.1100 103° East 522 601 39,000  Level FlightAware
11:37PM -24.7650 138.2200 103° East 522 601 39,000  Level FlightAware
11:38PM -24.7830 138.3080 103° East 522 601 39,000  Level FlightAware
11:38PM -24.8522 138.6457 282° West 15,000  Descending Aus ATC (Calculated)
11:38PM -24.8522 138.6457 282° West 15,000 43,620 Level Aus ATC (Calculated)
11:39PM -24.8020 138.3960 103° East 522 601 39,000 19,680 Climbing FlightAware
11:39PM -24.8200 138.4840 103° East 522 601 39,000  Level FlightAware
11:40PM -24.8390 138.5720 103° East 522 601 39,000  Level FlightAware
11:41PM -24.8620 138.6820 103° East 522 601 39,000  Level FlightAware
11:42PM -24.8800 138.7710 103° East 522 601 39,000  Level FlightAware
11:42PM -24.8990 138.8590 103° East 522 601 39,000  Level FlightAware
11:43PM -24.9170 138.9470 103° East 522 601 39,000  Level FlightAware
11:43PM -24.9944 139.3509 282° West 15,000  Descending Aus ATC (Calculated)
11:44PM -24.9350 139.0350 103° East 522 601 39,000 19,440 Climbing FlightAware
11:44PM -24.9590 139.1460 103° East 522 601 39,000  Level FlightAware
11:45PM -24.9770 139.2340 103° East 522 601 39,000  Level FlightAware
11:46PM -24.9960 139.3220 103° East 522 601 39,000  Level FlightAware
11:46PM -25.0140 139.4100 103° East 522 601 39,000  Level FlightAware
11:47PM -25.0320 139.4990 103° East 522 601 39,000  Level FlightAware
11:48PM -25.0560 139.6090 104° East 522 601 39,000  Level FlightAware
11:48PM -25.1333 140.0577 102° East 15,000  Descending Aus ATC (Calculated)
11:49PM -25.1543 140.1666 102° East 15,000 3,120 Level Aus ATC (Calculated)
11:51PM -25.2088 140.4501 102° East  Level FlightAware Approximate
11:52PM -25.2397 140.6122 102° East  Level FlightAware Approximate
11:53PM -25.2703 140.7744 102° East  Level FlightAware Approximate
11:53PM -25.2790 140.8206 102° East 15,000  Level Aus ATC (Calculated)
11:54PM -25.3009 140.9367 102° East  Level FlightAware Approximate
11:55PM -25.3206 141.0424 102° East  Level FlightAware Approximate
11:56PM -25.3509 141.2048 102° East  Level FlightAware Approximate
11:56PM -25.3403 141.1481 102° East 15,000  Level Aus ATC (Calculated)
11:56PM -25.3480 141.1880 102° East 529 609 39,000 26,160 Climbing FlightAware
11:56PM -25.3640 141.2820 102° East 529 609 39,000  Level FlightAware
11:57PM -25.3800 141.3720 101° East 529 609 39,000  Level FlightAware
11:58PM -25.4000 141.4850 101° East 529 609 39,000  Level FlightAware
11:59PM -25.4160 141.5760 101° East 529 609 39,000  Level FlightAware
11:59PM -25.4320 141.6660 101° East 529 609 39,000  Level FlightAware
12:00AM -25.4480 141.7570 101° East 529 609 39,000  Level FlightAware
12:00AM -25.4844 141.9359 100° East 15,000  Descending Aus ATC (Calculated)
12:01AM -25.4890 141.9640 102° East 532 612 39,000 20,520 Climbing FlightAware
12:02AM -25.5140 142.1010 102° East 533 613 39,000  Level FlightAware
12:02AM -25.5300 142.1920 101° East 533 613 39,000  Level FlightAware
12:03AM -25.5460 142.2830 101° East 533 613 39,000  Level FlightAware
12:04AM -25.5770 142.4550 101° East 531 611 39,000  Level FlightAware
12:04AM -25.5930 142.5460 101° East 531 611 39,000  Level FlightAware
12:05AM -25.6045 142.6126 102° East 15,000  Descending Aus ATC (Calculated)
12:05AM -25.6090 142.6370 101° East 531 611 39,000 25,680 Climbing FlightAware
12:05AM -25.6242 142.7255 109° East 15,000  Descending Aus ATC (Calculated)
12:06AM -25.6250 142.7280 101° East 531 611 39,000 23,580 Climbing FlightAware
12:06AM -25.6400 142.8190 101° East 531 611 39,000  Level FlightAware
12:07AM -25.6600 142.9320 101° East 531 611 39,000  Level FlightAware
12:08AM -25.6760 143.0230 101° East 531 611 39,000  Level FlightAware
12:09AM -25.6920 143.1140 101° East 531 611 39,000  Level FlightAware
12:09AM -25.7080 143.2050 101° East 531 611 39,000  Level FlightAware
12:10AM -25.7240 143.2960 101° East 531 611 39,000  Level FlightAware
12:10AM -25.7598 143.5170 280° West 15,000  Descending Aus ATC (Calculated)
12:11AM -25.7400 143.3870 101° East 531 611 39,000 20,280 Climbing FlightAware
12:12AM -25.7930 143.7130 101° East 531 611 39,000  Level FlightAware
12:12AM -25.8090 143.8040 101° East 531 611 39,000  Level FlightAware
12:13AM -25.8250 143.8950 101° East 531 611 39,000  Level FlightAware
12:14AM -25.8450 144.0090 101° East 531 611 39,000  Level FlightAware
12:14AM -25.8610 144.1000 101° East 531 611 39,000  Level FlightAware
12:15AM -25.8770 144.1910 101° East 531 611 39,000  Level FlightAware
12:15AM -25.8819 144.2534 113° Southeast 15,000  Descending Aus ATC (Calculated)
12:16AM -25.8930 144.2830 101° East 531 611 39,000 23,220 Climbing FlightAware
12:16AM -25.9090 144.3740 101° East 531 611 39,000  Level FlightAware
12:17AM -25.9250 144.4650 101° East 531 611 39,000  Level FlightAware
12:18AM -25.9450 144.5790 101° East 531 611 39,000  Level FlightAware
12:18AM -25.9551 144.7074 262° West 15,000  Descending Aus ATC (Calculated)
12:19AM -25.9600 144.6700 101° East 531 611 39,000 19,980 Climbing FlightAware
12:19AM -25.9760 144.7610 101° East 531 611 39,000  Level FlightAware
12:20AM -25.9920 144.8520 101° East 531 611 39,000  Level FlightAware
12:21AM -26.0120 144.9660 101° East 531 611 39,000  Level FlightAware
12:22AM -26.0329 145.2016 100° East 15,000  Descending Aus ATC (Calculated)
12:23AM -26.0716 145.4518 100° East 15,000 2,220 Level Aus ATC (Calculated)
12:25AM -26.1093 145.6986 100° East  Level FlightAware Approximate
12:26AM -26.1343 145.8632 100° East  Level FlightAware Approximate
12:27AM -26.1590 146.0279 100° East  Level FlightAware Approximate
12:27AM -26.1571 146.0154 99° East 15,000  Level Aus ATC (Calculated)
12:28AM -26.1851 146.2034 99° East 15,000 4,560 Level Aus ATC (Calculated)
12:30AM -26.2219 146.4534 99° East  Level FlightAware Approximate
12:31AM -26.2460 146.6183 99° East  Level FlightAware Approximate
12:32AM -26.2698 146.7833 99° East  Level FlightAware Approximate
12:32AM -26.3117 147.0764 99° East 544 626 39,200  Level Aus ATC (RADAR)
12:33AM -26.3240 147.1715 98° East 535 616 39,200  Level Aus ATC (RADAR)
12:34AM -26.3408 147.2952 99° East 538 619 39,200  Level Aus ATC (RADAR)
12:34AM -26.3521 147.3898 98° East 535 616 39,200  Level Aus ATC (RADAR)
12:35AM -26.3737 147.5174 101° East 549 632 39,200  Level Aus ATC (RADAR)
12:35AM -26.3830 147.5867 99° East 545 627 39,200  Level Aus ATC (RADAR)
12:36AM -26.3960 147.6830 99° East 541 623 39,200 -180 Level Aus ATC (RADAR)
12:37AM -26.4110 147.7970 99° East 543 625 39,000  Descending FlightAware
12:37AM -26.4284 147.9174 99° East 539 620 39,200  Climbing Aus ATC (RADAR)
12:38AM -26.4230 147.8910 99° East 543 625 39,000 -180 Descending FlightAware
12:38AM -26.4418 148.0137 99° East 538 619 39,100  Climbing Aus ATC (RADAR)
12:38AM -26.4350 147.9850 99° East 543 625 39,000  Descending FlightAware
12:39AM -26.4620 148.1653 99° East 538 619 39,100  Climbing Aus ATC (RADAR)
12:39AM -26.4470 148.0800 99° East 543 625 39,000  Descending FlightAware
12:39AM -26.4747 148.2612 99° East 535 616 39,100  Climbing Aus ATC (RADAR)
12:40AM -26.4590 148.1740 99° East 543 625 39,000  Descending FlightAware
12:40AM -26.4914 148.3851 99° East 536 617 39,100  Climbing Aus ATC (RADAR)
12:40AM -26.4740 148.2930 99° East 543 625 39,000 -120 Descending FlightAware
12:41AM -26.4860 148.3870 98° East 543 625 39,000  Level FlightAware
12:42AM -26.4970 148.4810 97° East 543 625 39,000 60 Level FlightAware
12:42AM -26.5378 148.7455 97° East 541 623 39,100  Climbing Aus ATC (RADAR)
12:42AM -26.5090 148.5760 97° East 543 625 39,000  Descending FlightAware
12:43AM -26.5461 148.8009 97° East 540 621 39,100  Climbing Aus ATC (RADAR)
12:43AM -26.5210 148.6710 97° East 543 625 39,000  Descending FlightAware
12:43AM -26.5687 148.9093 97° East 537 618 39,100  Climbing Aus ATC (RADAR)
12:44AM -26.5360 148.7890 97° East 543 625 39,000 -120 Descending FlightAware
12:45AM -26.5480 148.8830 98° East 543 625 39,000  Level FlightAware
12:45AM -26.5600 148.9780 98° East 543 625 39,000 60 Level FlightAware
12:46AM -26.6518 149.3155 98° East 530 610 39,100  Climbing Aus ATC (RADAR)
12:46AM -26.5720 149.0720 98° East 543 625 39,000  Descending FlightAware
12:47AM -26.6892 149.5023 98° East 521 600 39,100 60 Climbing Aus ATC (RADAR)
12:47AM -26.7028 149.5693 103° East 525 604 39,100  Level Aus ATC (RADAR)
12:48AM -26.7239 149.6766 102° East 527 606 39,100  Level Aus ATC (RADAR)
12:49AM -26.7427 149.7703 103° East 527 606 39,100  Level Aus ATC (RADAR)
12:49AM -26.7613 149.8643 103° East 527 606 39,100  Level Aus ATC (RADAR)
12:50AM -26.7848 149.9848 102° East 526 605 39,100  Level Aus ATC (RADAR)
12:50AM -26.7981 150.0518 103° East 526 605 39,100  Level Aus ATC (RADAR)
12:51AM -26.8192 150.1594 102° East 528 608 39,100  Level Aus ATC (RADAR)
12:52AM -26.8429 150.2800 102° East 527 606 39,100  Level Aus ATC (RADAR)
12:52AM -26.8559 150.3478 102° East 529 609 39,100  Level Aus ATC (RADAR)
12:53AM -26.8741 150.4426 102° East 532 612 39,100  Level Aus ATC (RADAR)
12:54AM -26.8976 150.5647 102° East 535 616 39,100  Level Aus ATC (RADAR)
12:54AM -26.9160 150.6598 102° East 533 613 39,100 -120 Level Aus ATC (RADAR)
12:55AM -26.9392 150.7825 102° East 532 612 39,000  Descending Aus ATC (RADAR)
12:55AM -26.9521 150.8507 102° East 533 613 39,100 60 Climbing Aus ATC (RADAR)
12:56AM -26.9705 150.9461 102° East 532 612 39,100  Level Aus ATC (RADAR)
12:57AM -27.0068 151.1369 102° East 532 612 39,100  Level Aus ATC (RADAR)
12:57AM -27.0189 151.2051 101° East 532 612 39,100 -600 Level Aus ATC (RADAR)
12:58AM -27.0365 151.2998 102° East 525 604 38,500 -1,860 Descending Aus ATC (RADAR)
12:59AM -27.0651 151.4337 104° East 524 603 36,500 -1,800 Descending Aus ATC (RADAR)
12:59AM -27.0988 151.5135 115° Southeast 484 557 36,000 -1,020 Descending Aus ATC (RADAR)
01:00AM -27.1524 151.6130 121° Southeast 440 506 35,100 -1,200 Descending Aus ATC (RADAR)
01:01AM -27.1773 151.6615 120° Southeast 428 493 34,500 -1,620 Descending Aus ATC (RADAR)
01:01AM -27.2122 151.7285 120° Southeast 419 482 33,500 -1,800 Descending Aus ATC (RADAR)
01:03AM -27.2865 151.8704 121° Southeast 409 471 31,200 -1,740 Descending Aus ATC (RADAR)
01:03AM -27.3109 151.9167 121° Southeast 400 460 30,600 -1,500 Descending Aus ATC (RADAR)
01:04AM -27.3441 151.9815 120° Southeast 400 460 29,700 -1,620 Descending Aus ATC (RADAR)
01:04AM -27.3862 152.0630 120° Southeast 392 451 28,500 -1,620 Descending Aus ATC (RADAR)
01:05AM -27.4182 152.1246 120° Southeast 380 437 27,600 -1,440 Descending Aus ATC (RADAR)
01:06AM -27.4539 152.1947 120° Southeast 375 432 26,700 -1,440 Descending Aus ATC (RADAR)
01:06AM -27.4761 152.2376 120° Southeast 374 430 26,100 -780 Descending Aus ATC (RADAR)
01:07AM -27.5343 152.3489 121° Southeast 373 429 25,600 -480 Descending Aus ATC (RADAR)
01:07AM -27.5564 152.3918 120° Southeast 372 428 25,400 -480 Descending Aus ATC (RADAR)
01:08AM -27.5781 152.4353 119° Southeast 374 430 25,200 -420 Descending Aus ATC (RADAR)
01:08AM -27.6202 152.4736 141° Southeast 329 379 25,000 -540 Descending Aus ATC (RADAR)
01:09AM -27.6837 152.4723 181° South 266 306 24,500 -600 Descending Aus ATC (RADAR)
01:10AM -27.7168 152.4483 213° Southwest 248 285 24,200 -480 Descending Aus ATC (RADAR)
01:11AM -27.7402 152.4023 240° Southwest 233 268 23,900 -540 Descending Aus ATC (RADAR)
01:11AM -27.7437 152.3723 263° West 235 270 23,600 -600 Descending Aus ATC (RADAR)
01:12AM -27.7240 152.3112 290° West 254 292 23,200 -480 Descending Aus ATC (RADAR)
01:12AM -27.7076 152.2820 303° West 261 300 23,000 -480 Descending Aus ATC (RADAR)
01:13AM -27.6926 152.2522 300° West 259 298 22,800 -480 Descending Aus ATC (RADAR)
01:13AM -27.6679 152.2044 300° West 261 300 22,500 -540 Descending Aus ATC (RADAR)
01:14AM -27.6404 152.1511 300° West 260 299 22,100 -540 Descending Aus ATC (RADAR)
01:15AM -27.6186 152.1096 301° West 260 299 21,800 -480 Descending Aus ATC (RADAR)
01:15AM -27.5668 152.0711 327° Northwest 300 345 21,500 -480 Descending Aus ATC (RADAR)
01:16AM -27.5223 152.0732 North 345 397 21,300 -420 Descending Aus ATC (RADAR)
01:16AM -27.4695 152.1190 38° Northeast 398 458 21,100 -420 Descending Aus ATC (RADAR)
01:17AM -27.4768 152.2412 94° East 398 458 20,700 -480 Descending Aus ATC (RADAR)
01:18AM -27.5014 152.2829 124° Southeast 379 436 20,500 -540 Descending Aus ATC (RADAR)
01:18AM -27.5315 152.3443 119° Southeast 376 433 20,200 -1,380 Descending Aus ATC (RADAR)
01:19AM -27.5466 152.4469 99° East 390 449 18,600 -1,800 Descending Aus ATC (RADAR)
01:20AM -27.5490 152.5200 92° East 390 449 17,700 -1,140 Descending Aus ATC (RADAR)
01:21AM -27.5541 152.6163 93° East 356 410 17,000 -1,080 Descending Aus ATC (RADAR)
01:21AM -27.5566 152.6626 93° East 348 400 16,400 -1,500 Descending Aus ATC (RADAR)
01:22AM -27.5599 152.7265 93° East 342 394 15,500 -1,560 Descending Aus ATC (RADAR)
01:23AM -27.5653 152.8333 93° East 325 374 14,000 -1,500 Descending Aus ATC (RADAR)
01:23AM -27.5676 152.8765 93° East 320 368 13,400 -1,440 Descending Aus ATC (RADAR)
01:24AM -27.5710 152.9441 93° East 317 365 12,500 -1,500 Descending Aus ATC (RADAR)
01:24AM -27.5737 153.0025 93° East 311 358 11,600 -1,620 Descending Aus ATC (RADAR)
01:25AM -27.5668 153.0604 82° East 307 353 10,700 -1,440 Descending Aus ATC (RADAR)
01:26AM -27.5520 153.1326 77° East 308 354 9,700 -1,320 Descending Aus ATC (RADAR)
01:26AM -27.5334 153.1671 59° Northeast 309 356 9,200 -1,200 Descending Aus ATC (RADAR)
01:27AM -27.4907 153.1945 30° Northeast 302 348 8,500 -1,200 Descending Aus ATC (RADAR)
01:28AM -27.4237 153.2384 30° Northeast 305 351 7,400 -1,080 Descending Aus ATC (RADAR)
01:28AM -27.3879 153.2617 30° Northeast 297 342 7,000 -600 Descending Aus ATC (RADAR)
01:29AM -27.3493 153.2861 29° Northeast 273 314 6,800 -600 Descending Aus ATC (RADAR)
01:29AM -27.3026 153.3168 30° Northeast 257 296 6,200 -900 Descending Aus ATC (RADAR)
01:30AM -27.2677 153.3347 24° Northeast 240 276 5,600 -1,140 Descending Aus ATC (RADAR)
01:31AM -27.2282 153.3069 328° Northwest 218 251 4,700 -1,200 Descending Aus ATC (RADAR)
01:31AM -27.2096 153.2897 321° Northwest 210 242 4,200 -1,140 Descending Aus ATC (RADAR)
01:32AM -27.2091 153.2560 271° West 183 211 3,600 -840 Descending Aus ATC (RADAR)
01:33AM -27.2447 153.2088 230° Southwest 161 185 2,600 -780 Descending Aus ATC (RADAR)
01:33AM -27.2545 153.2030 208° Southwest 159 183 2,400 -600 Descending Aus ATC (RADAR)
01:34AM -27.2774 153.1897 207° Southwest 160 184 2,100 -600 Descending Aus ATC (RADAR)
01:35AM -27.3067 153.1735 206° Southwest 155 178 1,600 -780 Descending Aus ATC (RADAR)
01:35AM -27.3276 153.1617 207° Southwest 144 166 1,100 -840 Descending Aus ATC (RADAR)
01:36AM -27.3473 153.1505 207° Southwest 138 159 700 -780 Descending Aus ATC (RADAR)
01:36AM -27.3671 153.1391 207° Southwest 136 157 200 -900 Descending Aus ATC (RADAR)